createdAt,value
2017-07-16T00:00:16.476Z,1017.62
2017-07-16T00:00:57.092Z,1017.64
2017-07-16T00:01:38.004Z,1017.62
2017-07-16T00:02:18.562Z,1017.62
2017-07-16T00:02:59.123Z,1017.64
2017-07-16T00:03:39.767Z,1017.6
2017-07-16T00:04:20.346Z,1017.6
2017-07-16T00:05:00.910Z,1017.6
2017-07-16T00:05:41.483Z,1017.58
2017-07-16T00:06:22.074Z,1017.65
2017-07-16T00:07:02.642Z,1017.66
2017-07-16T00:07:43.201Z,1017.68
2017-07-16T00:08:23.847Z,1017.63
2017-07-16T00:09:04.410Z,1017.62
2017-07-16T00:09:44.980Z,1017.63
2017-07-16T00:10:25.549Z,1017.66
2017-07-16T00:11:06.133Z,1017.63
2017-07-16T00:11:46.697Z,1017.7
2017-07-16T00:12:27.258Z,1017.68
2017-07-16T00:13:07.810Z,1017.65
2017-07-16T00:13:48.356Z,1017.69
2017-07-16T00:14:28.921Z,1017.68
2017-07-16T00:15:09.491Z,1017.7
2017-07-16T00:15:50.058Z,1017.71
2017-07-16T00:16:30.635Z,1017.69
2017-07-16T00:17:11.197Z,1017.74
2017-07-16T00:17:51.764Z,1017.71
2017-07-16T00:18:32.330Z,1017.72
2017-07-16T00:19:12.902Z,1017.71
2017-07-16T00:20:00.120Z,1017.72
2017-07-16T00:20:40.677Z,1017.72
2017-07-16T00:21:21.243Z,1017.73
2017-07-16T00:22:01.808Z,1017.76
2017-07-16T00:22:42.386Z,1017.72
2017-07-16T00:23:22.957Z,1017.76
2017-07-16T00:24:03.551Z,1017.72
2017-07-16T00:24:44.116Z,1017.68
2017-07-16T00:25:24.683Z,1017.68
2017-07-16T00:26:05.266Z,1017.66
2017-07-16T00:26:45.862Z,1017.68
2017-07-16T00:27:26.441Z,1017.67
2017-07-16T00:28:07.058Z,1017.74
2017-07-16T00:28:47.612Z,1017.72
2017-07-16T00:29:28.268Z,1017.71
2017-07-16T00:30:08.841Z,1017.7
2017-07-16T00:30:49.426Z,1017.73
2017-07-16T00:31:30.038Z,1017.71
2017-07-16T00:32:10.578Z,1017.69
2017-07-16T00:32:51.149Z,1017.72
2017-07-16T00:33:31.701Z,1017.72
2017-07-16T00:34:12.292Z,1017.71
2017-07-16T00:34:52.900Z,1017.71
2017-07-16T00:35:33.443Z,1017.69
2017-07-16T00:36:14.009Z,1017.73
2017-07-16T00:36:54.613Z,1017.68
2017-07-16T00:37:35.175Z,1017.69
2017-07-16T00:38:15.748Z,1017.66
2017-07-16T00:38:56.309Z,1017.7
2017-07-16T00:39:36.882Z,1017.68
2017-07-16T00:40:17.455Z,1017.65
2017-07-16T00:40:58.030Z,1017.69
2017-07-16T00:41:38.641Z,1017.63
2017-07-16T00:42:19.221Z,1017.67
2017-07-16T00:42:59.820Z,1017.7
2017-07-16T00:43:40.399Z,1017.71
2017-07-16T00:44:20.978Z,1017.69
2017-07-16T00:45:01.559Z,1017.69
2017-07-16T00:45:42.122Z,1017.71
2017-07-16T00:46:22.683Z,1017.73
2017-07-16T00:47:03.260Z,1017.69
2017-07-16T00:47:43.823Z,1017.69
2017-07-16T00:48:24.392Z,1017.7
2017-07-16T00:49:04.956Z,1017.7
2017-07-16T00:49:45.524Z,1017.73
2017-07-16T00:50:26.093Z,1017.74
2017-07-16T00:51:06.711Z,1017.75
2017-07-16T00:51:47.273Z,1017.73
2017-07-16T00:52:27.841Z,1017.71
2017-07-16T00:53:08.420Z,1017.72
2017-07-16T00:53:48.973Z,1017.74
2017-07-16T00:54:29.556Z,1017.7
2017-07-16T00:55:10.137Z,1017.71
2017-07-16T00:55:50.722Z,1017.74
2017-07-16T00:56:31.292Z,1017.71
2017-07-16T00:57:11.894Z,1017.75
2017-07-16T00:57:52.467Z,1017.73
2017-07-16T00:58:33.079Z,1017.75
2017-07-16T00:59:13.637Z,1017.74
2017-07-16T00:59:54.220Z,1017.76
2017-07-16T01:00:34.805Z,1017.74
2017-07-16T01:01:15.362Z,1017.7
2017-07-16T01:01:55.918Z,1017.74
2017-07-16T01:02:36.489Z,1017.72
2017-07-16T01:03:17.033Z,1017.69
2017-07-16T01:03:57.600Z,1017.75
2017-07-16T01:04:38.203Z,1017.74
2017-07-16T01:05:18.782Z,1017.71
2017-07-16T01:05:59.364Z,1017.7
2017-07-16T01:06:39.926Z,1017.71
2017-07-16T01:07:20.501Z,1017.72
2017-07-16T01:08:01.088Z,1017.72
2017-07-16T01:08:41.642Z,1017.72
2017-07-16T01:09:22.204Z,1017.72
2017-07-16T01:10:02.803Z,1017.73
2017-07-16T01:10:43.358Z,1017.72
2017-07-16T01:11:23.949Z,1017.74
2017-07-16T01:12:04.521Z,1017.77
2017-07-16T01:12:45.089Z,1017.71
2017-07-16T01:13:25.650Z,1017.72
2017-07-16T01:14:06.233Z,1017.75
2017-07-16T01:14:46.808Z,1017.72
2017-07-16T01:15:27.420Z,1017.75
2017-07-16T01:16:08.005Z,1017.73
2017-07-16T01:16:48.563Z,1017.76
2017-07-16T01:17:29.147Z,1017.75
2017-07-16T01:18:09.709Z,1017.74
2017-07-16T01:18:50.267Z,1017.78
2017-07-16T01:19:30.839Z,1017.75
2017-07-16T01:20:11.409Z,1017.74
2017-07-16T01:20:51.970Z,1017.76
2017-07-16T01:21:32.529Z,1017.74
2017-07-16T01:22:13.100Z,1017.72
2017-07-16T01:22:53.677Z,1017.73
2017-07-16T01:23:34.260Z,1017.74
2017-07-16T01:24:14.812Z,1017.75
2017-07-16T01:24:55.379Z,1017.76
2017-07-16T01:25:35.943Z,1017.75
2017-07-16T01:26:16.545Z,1017.7
2017-07-16T01:26:57.120Z,1017.72
2017-07-16T01:27:37.679Z,1017.74
2017-07-16T01:28:18.260Z,1017.75
2017-07-16T01:28:58.843Z,1017.71
2017-07-16T01:29:39.402Z,1017.7
2017-07-16T01:30:19.971Z,1017.72
2017-07-16T01:31:00.542Z,1017.72
2017-07-16T01:31:41.101Z,1017.75
2017-07-16T01:32:21.683Z,1017.74
2017-07-16T01:33:02.271Z,1017.72
2017-07-16T01:33:42.835Z,1017.7
2017-07-16T01:34:23.417Z,1017.73
2017-07-16T01:35:03.989Z,1017.75
2017-07-16T01:35:44.582Z,1017.71
2017-07-16T01:36:25.147Z,1017.73
2017-07-16T01:37:05.709Z,1017.69
2017-07-16T01:37:46.306Z,1017.75
2017-07-16T01:38:26.897Z,1017.7
2017-07-16T01:39:07.452Z,1017.72
2017-07-16T01:39:48.028Z,1017.72
2017-07-16T01:40:28.589Z,1017.69
2017-07-16T01:41:09.174Z,1017.71
2017-07-16T01:41:49.738Z,1017.68
2017-07-16T01:42:30.313Z,1017.72
2017-07-16T01:43:10.881Z,1017.68
2017-07-16T01:43:51.436Z,1017.69
2017-07-16T01:44:31.995Z,1017.67
2017-07-16T01:45:12.570Z,1017.68
2017-07-16T01:45:53.157Z,1017.64
2017-07-16T01:46:33.723Z,1017.68
2017-07-16T01:47:14.295Z,1017.63
2017-07-16T01:47:54.858Z,1017.69
2017-07-16T01:48:35.431Z,1017.72
2017-07-16T01:49:15.997Z,1017.7
2017-07-16T01:49:56.589Z,1017.7
2017-07-16T01:50:37.167Z,1017.69
2017-07-16T01:51:17.720Z,1017.74
2017-07-16T01:51:58.303Z,1017.72
2017-07-16T01:52:38.883Z,1017.7
2017-07-16T01:53:19.462Z,1017.74
2017-07-16T01:54:00.041Z,1017.75
2017-07-16T01:54:40.608Z,1017.74
2017-07-16T01:55:21.170Z,1017.77
2017-07-16T01:56:01.750Z,1017.75
2017-07-16T01:56:42.303Z,1017.73
2017-07-16T01:57:22.863Z,1017.72
2017-07-16T01:58:03.463Z,1017.75
2017-07-16T01:58:44.042Z,1017.71
2017-07-16T01:59:24.618Z,1017.75
2017-07-16T02:00:05.197Z,1017.69
2017-07-16T02:00:45.784Z,1017.76
2017-07-16T02:01:26.366Z,1017.76
2017-07-16T02:02:06.927Z,1017.75
2017-07-16T02:02:47.499Z,1017.73
2017-07-16T02:03:28.061Z,1017.7
2017-07-16T02:04:08.625Z,1017.71
2017-07-16T02:04:49.184Z,1017.71
2017-07-16T02:05:29.782Z,1017.7
2017-07-16T02:06:10.331Z,1017.72
2017-07-16T02:06:50.892Z,1017.68
2017-07-16T02:07:31.462Z,1017.66
2017-07-16T02:08:12.026Z,1017.64
2017-07-16T02:08:52.585Z,1017.62
2017-07-16T02:09:33.154Z,1017.63
2017-07-16T02:10:13.738Z,1017.65
2017-07-16T02:10:54.306Z,1017.68
2017-07-16T02:11:34.875Z,1017.63
2017-07-16T02:12:15.431Z,1017.64
2017-07-16T02:12:56.000Z,1017.6
2017-07-16T02:13:36.563Z,1017.64
2017-07-16T02:14:17.128Z,1017.64
2017-07-16T02:14:57.706Z,1017.67
2017-07-16T02:15:38.276Z,1017.68
2017-07-16T02:16:18.838Z,1017.63
2017-07-16T02:16:59.415Z,1017.64
2017-07-16T02:17:39.989Z,1017.65
2017-07-16T02:18:20.569Z,1017.67
2017-07-16T02:19:01.099Z,1017.68
2017-07-16T02:19:41.669Z,1017.65
2017-07-16T02:20:22.242Z,1017.68
2017-07-16T02:21:02.807Z,1017.69
2017-07-16T02:21:43.395Z,1017.69
2017-07-16T02:22:23.970Z,1017.72
2017-07-16T02:23:04.534Z,1017.68
2017-07-16T02:23:45.099Z,1017.73
2017-07-16T02:24:25.668Z,1017.75
2017-07-16T02:25:06.257Z,1017.78
2017-07-16T02:25:46.837Z,1017.74
2017-07-16T02:26:27.401Z,1017.74
2017-07-16T02:27:07.972Z,1017.74
2017-07-16T02:27:48.525Z,1017.72
2017-07-16T02:28:29.108Z,1017.7
2017-07-16T02:29:09.700Z,1017.76
2017-07-16T02:29:50.258Z,1017.74
2017-07-16T02:30:30.821Z,1017.73
2017-07-16T02:31:11.375Z,1017.73
2017-07-16T02:31:51.952Z,1017.72
2017-07-16T02:32:32.512Z,1017.69
2017-07-16T02:33:13.099Z,1017.73
2017-07-16T02:33:53.672Z,1017.68
2017-07-16T02:34:34.231Z,1017.67
2017-07-16T02:35:14.805Z,1017.68
2017-07-16T02:35:55.376Z,1017.67
2017-07-16T02:36:35.964Z,1017.68
2017-07-16T02:37:16.499Z,1017.68
2017-07-16T02:37:57.078Z,1017.72
2017-07-16T02:38:37.642Z,1017.7
2017-07-16T02:39:18.218Z,1017.69
2017-07-16T02:39:58.781Z,1017.67
2017-07-16T02:40:39.364Z,1017.68
2017-07-16T02:41:19.933Z,1017.66
2017-07-16T02:42:00.536Z,1017.68
2017-07-16T02:42:41.102Z,1017.69
2017-07-16T02:43:21.704Z,1017.7
2017-07-16T02:44:02.250Z,1017.66
2017-07-16T02:44:42.829Z,1017.71
2017-07-16T02:45:23.404Z,1017.71
2017-07-16T02:46:03.985Z,1017.71
2017-07-16T02:46:44.553Z,1017.68
2017-07-16T02:47:25.127Z,1017.68
2017-07-16T02:48:05.693Z,1017.69
2017-07-16T02:48:46.266Z,1017.66
2017-07-16T02:49:26.846Z,1017.64
2017-07-16T02:50:07.436Z,1017.67
2017-07-16T02:50:48.000Z,1017.67
2017-07-16T02:51:28.574Z,1017.65
2017-07-16T02:52:09.126Z,1017.67
2017-07-16T02:52:49.699Z,1017.66
2017-07-16T02:53:30.269Z,1017.67
2017-07-16T02:54:10.829Z,1017.66
2017-07-16T02:54:51.401Z,1017.65
2017-07-16T02:55:31.966Z,1017.66
2017-07-16T02:56:12.529Z,1017.67
2017-07-16T02:56:53.098Z,1017.64
2017-07-16T02:57:33.662Z,1017.64
2017-07-16T02:58:14.224Z,1017.66
2017-07-16T02:58:54.796Z,1017.7
2017-07-16T02:59:35.375Z,1017.68
2017-07-16T03:00:15.956Z,1017.69
2017-07-16T03:00:56.521Z,1017.7
2017-07-16T03:01:37.081Z,1017.73
2017-07-16T03:02:17.678Z,1017.77
2017-07-16T03:02:58.315Z,1017.78
2017-07-16T03:03:38.874Z,1017.76
2017-07-16T03:04:19.460Z,1017.75
2017-07-16T03:05:00.039Z,1017.76
2017-07-16T03:05:40.608Z,1017.74
2017-07-16T03:06:21.163Z,1017.75
2017-07-16T03:07:01.730Z,1017.73
2017-07-16T03:07:42.322Z,1017.74
2017-07-16T03:08:22.887Z,1017.73
2017-07-16T03:09:03.470Z,1017.76
2017-07-16T03:09:44.034Z,1017.73
2017-07-16T03:10:24.597Z,1017.78
2017-07-16T03:11:05.168Z,1017.81
2017-07-16T03:11:45.744Z,1017.77
2017-07-16T03:12:26.317Z,1017.77
2017-07-16T03:13:06.870Z,1017.76
2017-07-16T03:13:47.438Z,1017.79
2017-07-16T03:14:28.022Z,1017.79
2017-07-16T03:15:08.590Z,1017.81
2017-07-16T03:15:49.166Z,1017.78
2017-07-16T03:16:29.754Z,1017.8
2017-07-16T03:17:10.333Z,1017.79
2017-07-16T03:17:50.925Z,1017.82
2017-07-16T03:18:31.486Z,1017.82
2017-07-16T03:19:12.059Z,1017.81
2017-07-16T03:19:52.636Z,1017.82
2017-07-16T03:20:33.206Z,1017.82
2017-07-16T03:21:13.777Z,1017.79
2017-07-16T03:21:54.360Z,1017.8
2017-07-16T03:22:35.005Z,1017.81
2017-07-16T03:23:15.551Z,1017.79
2017-07-16T03:23:56.120Z,1017.78
2017-07-16T03:24:36.680Z,1017.8
2017-07-16T03:25:17.233Z,1017.79
2017-07-16T03:25:57.814Z,1017.76
2017-07-16T03:26:38.387Z,1017.75
2017-07-16T03:27:18.944Z,1017.77
2017-07-16T03:27:59.504Z,1017.78
2017-07-16T03:28:40.062Z,1017.8
2017-07-16T03:29:20.630Z,1017.8
2017-07-16T03:30:01.195Z,1017.85
2017-07-16T03:30:41.762Z,1017.8
2017-07-16T03:31:22.333Z,1017.81
2017-07-16T03:32:02.916Z,1017.8
2017-07-16T03:32:43.501Z,1017.81
2017-07-16T03:33:24.069Z,1017.82
2017-07-16T03:34:04.631Z,1017.81
2017-07-16T03:34:45.215Z,1017.8
2017-07-16T03:35:25.787Z,1017.81
2017-07-16T03:36:06.362Z,1017.83
2017-07-16T03:36:46.910Z,1017.81
2017-07-16T03:37:27.487Z,1017.79
2017-07-16T03:38:08.053Z,1017.8
2017-07-16T03:38:48.608Z,1017.78
2017-07-16T03:39:29.166Z,1017.8
2017-07-16T03:40:09.737Z,1017.84
2017-07-16T03:40:50.332Z,1017.8
2017-07-16T03:41:30.883Z,1017.82
2017-07-16T03:42:11.463Z,1017.81
2017-07-16T03:42:52.032Z,1017.84
2017-07-16T03:43:32.591Z,1017.8
2017-07-16T03:44:13.177Z,1017.82
2017-07-16T03:44:53.737Z,1017.85
2017-07-16T03:45:34.310Z,1017.81
2017-07-16T03:46:14.871Z,1017.82
2017-07-16T03:46:55.421Z,1017.86
2017-07-16T03:47:35.985Z,1017.84
2017-07-16T03:48:16.566Z,1017.82
2017-07-16T03:48:57.109Z,1017.79
2017-07-16T03:49:37.670Z,1017.81
2017-07-16T03:50:18.233Z,1017.8
2017-07-16T03:50:58.830Z,1017.81
2017-07-16T03:51:39.421Z,1017.78
2017-07-16T03:52:20.034Z,1017.76
2017-07-16T03:53:00.605Z,1017.85
2017-07-16T03:53:41.203Z,1017.8
2017-07-16T03:54:21.786Z,1017.8
2017-07-16T03:55:02.347Z,1017.82
2017-07-16T03:55:42.916Z,1017.8
2017-07-16T03:56:23.480Z,1017.81
2017-07-16T03:57:04.038Z,1017.79
2017-07-16T03:57:44.603Z,1017.81
2017-07-16T03:58:25.166Z,1017.75
2017-07-16T03:59:05.751Z,1017.75
2017-07-16T03:59:46.323Z,1017.74
2017-07-16T04:00:26.900Z,1017.76
2017-07-16T04:01:07.495Z,1017.78
2017-07-16T04:01:48.055Z,1017.75
2017-07-16T04:02:28.619Z,1017.73
2017-07-16T04:03:09.181Z,1017.77
2017-07-16T04:03:49.751Z,1017.78
2017-07-16T04:04:30.305Z,1017.76
2017-07-16T04:05:10.931Z,1017.76
2017-07-16T04:05:51.508Z,1017.79
2017-07-16T04:06:32.072Z,1017.8
2017-07-16T04:07:12.645Z,1017.78
2017-07-16T04:07:53.214Z,1017.82
2017-07-16T04:08:33.774Z,1017.81
2017-07-16T04:09:14.355Z,1017.85
2017-07-16T04:09:54.924Z,1017.85
2017-07-16T04:10:35.506Z,1017.83
2017-07-16T04:11:16.072Z,1017.83
2017-07-16T04:11:56.623Z,1017.86
2017-07-16T04:12:37.207Z,1017.86
2017-07-16T04:13:17.767Z,1017.85
2017-07-16T04:13:58.330Z,1017.89
2017-07-16T04:14:38.892Z,1017.87
2017-07-16T04:15:19.470Z,1017.86
2017-07-16T04:16:00.038Z,1017.83
2017-07-16T04:16:40.600Z,1017.86
2017-07-16T04:17:21.172Z,1017.82
2017-07-16T04:18:01.745Z,1017.84
2017-07-16T04:18:42.321Z,1017.84
2017-07-16T04:19:22.915Z,1017.82
2017-07-16T04:20:03.482Z,1017.83
2017-07-16T04:20:44.036Z,1017.83
2017-07-16T04:21:24.611Z,1017.83
2017-07-16T04:22:05.286Z,1017.84
2017-07-16T04:22:45.875Z,1017.84
2017-07-16T04:23:26.477Z,1017.85
2017-07-16T04:24:07.042Z,1017.85
2017-07-16T04:24:47.617Z,1017.86
2017-07-16T04:25:28.187Z,1017.83
2017-07-16T04:26:08.749Z,1017.85
2017-07-16T04:26:49.366Z,1017.82
2017-07-16T04:27:29.944Z,1017.87
2017-07-16T04:28:10.529Z,1017.82
2017-07-16T04:28:51.104Z,1017.85
2017-07-16T04:29:31.670Z,1017.89
2017-07-16T04:30:12.246Z,1017.82
2017-07-16T04:30:52.815Z,1017.89
2017-07-16T04:31:33.385Z,1017.85
2017-07-16T04:32:13.957Z,1017.87
2017-07-16T04:32:54.524Z,1017.84
2017-07-16T04:33:35.099Z,1017.88
2017-07-16T04:34:15.662Z,1017.87
2017-07-16T04:34:56.333Z,1017.88
2017-07-16T04:35:36.890Z,1017.87
2017-07-16T04:36:17.486Z,1017.89
2017-07-16T04:36:58.119Z,1017.89
2017-07-16T04:37:38.727Z,1017.92
2017-07-16T04:38:19.291Z,1017.92
2017-07-16T04:38:59.886Z,1017.92
2017-07-16T04:39:40.468Z,1017.91
2017-07-16T04:40:21.058Z,1017.93
2017-07-16T04:41:01.643Z,1017.92
2017-07-16T04:41:42.235Z,1017.93
2017-07-16T04:42:22.870Z,1017.91
2017-07-16T04:43:03.436Z,1017.91
2017-07-16T04:43:44.013Z,1017.93
2017-07-16T04:44:24.577Z,1017.93
2017-07-16T04:45:05.184Z,1017.91
2017-07-16T04:45:45.774Z,1017.92
2017-07-16T04:46:26.346Z,1017.88
2017-07-16T04:47:06.902Z,1017.94
2017-07-16T04:47:47.463Z,1017.9
2017-07-16T04:48:28.042Z,1017.9
2017-07-16T04:49:08.600Z,1017.9
2017-07-16T04:49:49.177Z,1017.91
2017-07-16T04:50:29.851Z,1017.9
2017-07-16T04:51:10.437Z,1017.89
2017-07-16T04:51:50.998Z,1017.89
2017-07-16T04:52:31.564Z,1017.9
2017-07-16T04:53:12.163Z,1017.92
2017-07-16T04:53:52.727Z,1017.96
2017-07-16T04:54:33.302Z,1017.96
2017-07-16T04:55:13.867Z,1017.94
2017-07-16T04:55:54.556Z,1017.94
2017-07-16T04:56:35.118Z,1017.95
2017-07-16T04:57:15.679Z,1017.96
2017-07-16T04:57:56.249Z,1017.95
2017-07-16T04:58:36.806Z,1017.95
2017-07-16T04:59:17.377Z,1017.95
2017-07-16T04:59:57.981Z,1017.98
2017-07-16T05:00:38.561Z,1017.98
2017-07-16T05:01:19.140Z,1017.98
2017-07-16T05:01:59.757Z,1018
2017-07-16T05:02:40.312Z,1018.06
2017-07-16T05:03:20.874Z,1018.03
2017-07-16T05:04:01.459Z,1018.03
2017-07-16T05:04:42.027Z,1018.05
2017-07-16T05:05:22.597Z,1018.06
2017-07-16T05:06:03.168Z,1018.06
2017-07-16T05:06:43.750Z,1018.07
2017-07-16T05:07:24.312Z,1018.09
2017-07-16T05:08:04.901Z,1018.09
2017-07-16T05:08:45.489Z,1018.07
2017-07-16T05:09:26.058Z,1018.07
2017-07-16T05:10:06.621Z,1018.09
2017-07-16T05:10:47.189Z,1018.12
2017-07-16T05:11:27.753Z,1018.11
2017-07-16T05:12:08.335Z,1018.12
2017-07-16T05:12:48.916Z,1018.13
2017-07-16T05:13:29.482Z,1018.15
2017-07-16T05:14:10.054Z,1018.16
2017-07-16T05:14:50.663Z,1018.12
2017-07-16T05:15:31.240Z,1018.15
2017-07-16T05:16:11.803Z,1018.14
2017-07-16T05:16:52.364Z,1018.14
2017-07-16T05:17:32.939Z,1018.13
2017-07-16T05:18:13.494Z,1018.15
2017-07-16T05:18:54.072Z,1018.15
2017-07-16T05:19:34.637Z,1018.13
2017-07-16T05:20:15.214Z,1018.1
2017-07-16T05:20:55.783Z,1018.07
2017-07-16T05:21:36.349Z,1018.1
2017-07-16T05:22:16.932Z,1018.15
2017-07-16T05:22:57.509Z,1018.11
2017-07-16T05:23:38.095Z,1018.13
2017-07-16T05:24:18.668Z,1018.15
2017-07-16T05:24:59.269Z,1018.16
2017-07-16T05:25:39.850Z,1018.15
2017-07-16T05:26:20.410Z,1018.15
2017-07-16T05:27:00.988Z,1018.16
2017-07-16T05:27:41.571Z,1018.19
2017-07-16T05:28:22.177Z,1018.15
2017-07-16T05:29:02.754Z,1018.2
2017-07-16T05:29:43.322Z,1018.17
2017-07-16T05:30:23.922Z,1018.19
2017-07-16T05:31:04.503Z,1018.17
2017-07-16T05:31:45.080Z,1018.13
2017-07-16T05:32:25.664Z,1018.12
2017-07-16T05:33:06.289Z,1018.1
2017-07-16T05:33:46.881Z,1018.12
2017-07-16T05:34:27.453Z,1018.09
2017-07-16T05:35:08.023Z,1018.15
2017-07-16T05:35:48.601Z,1018.24
2017-07-16T05:36:29.199Z,1018.33
2017-07-16T05:37:09.777Z,1018.32
2017-07-16T05:37:50.340Z,1018.38
2017-07-16T05:38:30.917Z,1018.45
2017-07-16T05:39:11.541Z,1018.44
2017-07-16T05:39:52.121Z,1018.47
2017-07-16T05:40:32.688Z,1018.54
2017-07-16T05:41:13.298Z,1018.51
2017-07-16T05:41:53.870Z,1018.62
2017-07-16T05:42:34.473Z,1018.65
2017-07-16T05:43:15.036Z,1018.68
2017-07-16T05:43:55.617Z,1018.72
2017-07-16T05:44:36.235Z,1018.66
2017-07-16T05:45:16.792Z,1018.76
2017-07-16T05:45:57.400Z,1018.79
2017-07-16T05:46:37.986Z,1018.83
2017-07-16T05:47:18.588Z,1018.9
2017-07-16T05:47:59.185Z,1018.89
2017-07-16T05:48:39.751Z,1018.93
2017-07-16T05:49:20.323Z,1018.98
2017-07-16T05:50:00.906Z,1018.99
2017-07-16T05:50:41.560Z,1019.02
2017-07-16T05:51:22.146Z,1019.02
2017-07-16T05:52:02.763Z,1019.09
2017-07-16T05:52:43.357Z,1019.15
2017-07-16T05:53:23.960Z,1019.17
2017-07-16T05:54:04.556Z,1019.22
2017-07-16T05:54:45.160Z,1019.31
2017-07-16T05:55:25.746Z,1019.36
2017-07-16T05:56:06.317Z,1019.43
2017-07-16T05:56:46.900Z,1019.48
2017-07-16T05:57:27.476Z,1019.52
2017-07-16T05:58:08.061Z,1019.56
2017-07-16T05:58:48.658Z,1019.66
2017-07-16T05:59:29.235Z,1019.75
2017-07-16T06:00:09.857Z,1019.81
2017-07-16T06:00:50.433Z,1019.84
2017-07-16T06:01:31.052Z,1019.83
2017-07-16T06:02:11.634Z,1019.75
2017-07-16T06:02:52.205Z,1019.88
2017-07-16T06:03:32.838Z,1019.89
2017-07-16T06:04:13.424Z,1020.15
2017-07-16T06:04:54.075Z,1020.09
2017-07-16T06:05:34.654Z,1020.09
2017-07-16T06:06:15.241Z,1019.91
2017-07-16T06:06:55.841Z,1019.61
2017-07-16T06:07:36.415Z,1019.6
2017-07-16T06:08:16.993Z,1019.71
2017-07-16T06:08:57.568Z,1019.79
2017-07-16T06:09:38.138Z,1019.4
2017-07-16T06:10:18.751Z,1019.24
2017-07-16T06:10:59.328Z,1019
2017-07-16T06:11:39.898Z,1019.03
2017-07-16T06:12:20.488Z,1018.98
2017-07-16T06:13:01.080Z,1018.93
2017-07-16T06:13:41.661Z,1018.93
2017-07-16T06:14:22.256Z,1018.83
2017-07-16T06:15:02.866Z,1018.72
2017-07-16T06:15:43.458Z,1018.67
2017-07-16T06:16:24.060Z,1018.67
2017-07-16T06:17:04.670Z,1018.68
2017-07-16T06:17:45.261Z,1018.6
2017-07-16T06:18:25.837Z,1018.64
2017-07-16T06:19:06.421Z,1018.67
2017-07-16T06:19:47.006Z,1018.65
2017-07-16T06:20:27.584Z,1018.67
2017-07-16T06:21:08.173Z,1018.66
2017-07-16T06:21:48.760Z,1018.65
2017-07-16T06:22:29.337Z,1018.62
2017-07-16T06:23:09.911Z,1018.65
2017-07-16T06:23:50.509Z,1018.67
2017-07-16T06:24:31.098Z,1018.66
2017-07-16T06:25:11.677Z,1018.71
2017-07-16T06:25:52.266Z,1018.71
2017-07-16T06:26:32.865Z,1018.7
2017-07-16T06:27:13.436Z,1018.75
2017-07-16T06:27:54.021Z,1018.75
2017-07-16T06:28:34.599Z,1018.77
2017-07-16T06:29:15.175Z,1018.73
2017-07-16T06:29:55.752Z,1018.75
2017-07-16T06:30:36.321Z,1018.76
2017-07-16T06:31:16.922Z,1018.71
2017-07-16T06:31:57.493Z,1018.71
2017-07-16T06:32:38.082Z,1018.69
2017-07-16T06:33:18.676Z,1018.68
2017-07-16T06:33:59.256Z,1018.69
2017-07-16T06:34:39.835Z,1018.69
2017-07-16T06:35:20.405Z,1018.73
2017-07-16T06:36:00.986Z,1018.67
2017-07-16T06:36:41.554Z,1018.69
2017-07-16T06:37:22.122Z,1018.67
2017-07-16T06:38:02.823Z,1018.67
2017-07-16T06:38:43.389Z,1018.69
2017-07-16T06:39:23.993Z,1018.7
2017-07-16T06:40:04.571Z,1018.72
2017-07-16T06:40:45.161Z,1018.72
2017-07-16T06:41:25.724Z,1018.71
2017-07-16T06:42:06.312Z,1018.69
2017-07-16T06:42:46.903Z,1018.7
2017-07-16T06:43:27.470Z,1018.7
2017-07-16T06:44:08.042Z,1018.68
2017-07-16T06:44:48.614Z,1018.67
2017-07-16T06:45:29.199Z,1018.68
2017-07-16T06:46:09.790Z,1018.65
2017-07-16T06:46:50.373Z,1018.64
2017-07-16T06:47:30.946Z,1018.66
2017-07-16T06:48:11.646Z,1018.61
2017-07-16T06:48:52.211Z,1018.62
2017-07-16T06:49:32.796Z,1018.62
2017-07-16T06:50:13.379Z,1018.63
2017-07-16T06:50:53.971Z,1018.65
2017-07-16T06:51:34.595Z,1018.63
2017-07-16T06:52:15.222Z,1018.63
2017-07-16T06:52:55.785Z,1018.63
2017-07-16T06:53:36.372Z,1018.64
2017-07-16T06:54:16.986Z,1018.68
2017-07-16T06:54:57.599Z,1018.66
2017-07-16T06:55:38.188Z,1018.64
2017-07-16T06:56:18.747Z,1018.64
2017-07-16T06:56:59.336Z,1018.64
2017-07-16T06:57:39.934Z,1018.69
2017-07-16T06:58:20.504Z,1018.69
2017-07-16T06:59:01.078Z,1018.66
2017-07-16T06:59:41.673Z,1018.69
2017-07-16T07:00:22.249Z,1018.69
2017-07-16T07:01:02.839Z,1018.69
2017-07-16T07:01:43.435Z,1018.72
2017-07-16T07:02:24.004Z,1018.66
2017-07-16T07:03:04.569Z,1018.66
2017-07-16T07:03:45.143Z,1018.68
2017-07-16T07:04:25.720Z,1018.7
2017-07-16T07:05:06.297Z,1018.68
2017-07-16T07:05:46.863Z,1018.63
2017-07-16T07:06:27.445Z,1018.67
2017-07-16T07:07:08.013Z,1018.69
2017-07-16T07:07:48.576Z,1018.71
2017-07-16T07:08:29.160Z,1018.67
2017-07-16T07:09:09.783Z,1018.71
2017-07-16T07:09:50.359Z,1018.72
2017-07-16T07:10:31.062Z,1018.71
2017-07-16T07:11:11.632Z,1018.73
2017-07-16T07:11:52.214Z,1018.72
2017-07-16T07:12:32.798Z,1018.77
2017-07-16T07:13:13.388Z,1018.77
2017-07-16T07:13:53.949Z,1018.78
2017-07-16T07:14:34.523Z,1018.78
2017-07-16T07:15:15.095Z,1018.78
2017-07-16T07:15:55.691Z,1018.9
2017-07-16T07:16:36.278Z,1018.9
2017-07-16T07:17:16.857Z,1018.88
2017-07-16T07:17:57.461Z,1018.85
2017-07-16T07:18:38.037Z,1018.84
2017-07-16T07:19:18.639Z,1018.86
2017-07-16T07:19:59.218Z,1018.89
2017-07-16T07:20:39.841Z,1018.82
2017-07-16T07:21:20.410Z,1018.85
2017-07-16T07:22:01.029Z,1018.87
2017-07-16T07:22:41.747Z,1018.87
2017-07-16T07:23:22.333Z,1018.84
2017-07-16T07:24:03.062Z,1018.84
2017-07-16T07:24:43.690Z,1018.82
2017-07-16T07:25:24.348Z,1018.81
2017-07-16T07:26:04.968Z,1018.82
2017-07-16T07:26:45.530Z,1018.85
2017-07-16T07:27:26.182Z,1018.89
2017-07-16T07:28:06.782Z,1018.85
2017-07-16T07:28:47.415Z,1018.82
2017-07-16T07:29:28.004Z,1018.83
2017-07-16T07:30:08.775Z,1018.83
2017-07-16T07:30:49.348Z,1018.83
2017-07-16T07:31:29.916Z,1018.85
2017-07-16T07:32:10.495Z,1018.78
2017-07-16T07:32:51.067Z,1018.81
2017-07-16T07:33:31.656Z,1018.82
2017-07-16T07:34:12.240Z,1018.79
2017-07-16T07:34:52.819Z,1018.78
2017-07-16T07:35:33.503Z,1018.78
2017-07-16T07:36:14.048Z,1018.75
2017-07-16T07:36:54.624Z,1018.77
2017-07-16T07:37:35.201Z,1018.8
2017-07-16T07:38:15.805Z,1018.78
2017-07-16T07:38:56.380Z,1018.82
2017-07-16T07:39:36.949Z,1018.82
2017-07-16T07:40:17.520Z,1018.81
2017-07-16T07:40:58.095Z,1018.77
2017-07-16T07:41:38.684Z,1018.82
2017-07-16T07:42:19.290Z,1018.79
2017-07-16T07:42:59.862Z,1018.78
2017-07-16T07:43:40.452Z,1018.83
2017-07-16T07:44:21.057Z,1018.82
2017-07-16T07:45:01.624Z,1018.8
2017-07-16T07:45:42.193Z,1018.81
2017-07-16T07:46:22.765Z,1018.78
2017-07-16T07:47:03.355Z,1018.79
2017-07-16T07:47:43.931Z,1018.75
2017-07-16T07:48:24.494Z,1018.78
2017-07-16T07:49:05.061Z,1018.81
2017-07-16T07:49:45.667Z,1018.77
2017-07-16T07:50:26.211Z,1018.74
2017-07-16T07:51:06.889Z,1018.71
2017-07-16T07:51:47.479Z,1018.74
2017-07-16T07:52:28.039Z,1018.69
2017-07-16T07:53:08.632Z,1018.71
2017-07-16T07:53:49.219Z,1018.68
2017-07-16T07:54:29.803Z,1018.73
2017-07-16T07:55:10.375Z,1018.77
2017-07-16T07:55:50.964Z,1018.73
2017-07-16T07:56:31.590Z,1018.79
2017-07-16T07:57:12.327Z,1018.8
2017-07-16T07:57:53.470Z,1018.76
2017-07-16T07:58:34.088Z,1018.76
2017-07-16T07:59:14.653Z,1018.74
2017-07-16T07:59:55.235Z,1018.76
2017-07-16T08:00:35.851Z,1018.75
2017-07-16T08:01:16.451Z,1018.75
2017-07-16T08:01:58.087Z,1018.77
2017-07-16T08:02:38.676Z,1018.77
2017-07-16T08:03:19.328Z,1018.8
2017-07-16T08:03:59.892Z,1018.76
2017-07-16T08:04:40.535Z,1018.78
2017-07-16T08:05:21.131Z,1018.81
2017-07-16T08:06:01.703Z,1018.79
2017-07-16T08:06:42.307Z,1018.72
2017-07-16T08:07:23.244Z,1018.76
2017-07-16T08:08:04.083Z,1018.74
2017-07-16T08:08:44.885Z,1018.73
2017-07-16T08:09:25.514Z,1018.7
2017-07-16T08:10:06.107Z,1018.71
2017-07-16T08:10:46.720Z,1018.73
2017-07-16T08:11:27.415Z,1018.7
2017-07-16T08:12:07.988Z,1018.72
2017-07-16T08:12:49.007Z,1018.74